Terminal Aerodrome Forecast
Issued by NWS

Home | Current Version | Previous Version | Text Only | Print | Product List | Glossary On
Versions: 1 2 3 4 5 6 7 8 9 10 11 12 13 14 15
000
FTUS44 KLIX 172339
TAFMCB
TAF
KMCB 172339Z 1800/1824 25004KT P6SM VCSH SCT025 BKN060
     FM180200 34005KT 6SM BR VCSH SCT015 BKN040
     FM180600 02006KT 4SM BR VCSH BKN008 OVC050
     FM181200 05005KT 3SM BR BKN010 OVC060
     FM181700 13005KT P6SM OVC008
     FM182200 17005KT P6SM BKN020=

USA.gov is the U.S. government's official web portal to all federal, state and local government web resources and services.